sensor_id;sensor_type;location;lat;lon;timestamp;temperature;humidity
9209;DHT22;4639;48.862;9.188;2023-03-14T00:01:46;10.60;99.90
9209;DHT22;4639;48.862;9.188;2023-03-14T00:04:14;10.60;99.90
9209;DHT22;4639;48.862;9.188;2023-03-14T00:06:39;10.50;99.90
9209;DHT22;4639;48.862;9.188;2023-03-14T00:09:05;10.50;99.90
9209;DHT22;4639;48.862;9.188;2023-03-14T00:11:30;10.60;99.90
9209;DHT22;4639;48.862;9.188;2023-03-14T00:13:56;10.50;99.90
9209;DHT22;4639;48.862;9.188;2023-03-14T00:16:22;10.60;99.90
9209;DHT22;4639;48.862;9.188;2023-03-14T00:18:48;10.50;99.90
9209;DHT22;4639;48.862;9.188;2023-03-14T00:21:13;10.50;99.90
9209;DHT22;4639;48.862;9.188;2023-03-14T00:23:40;10.50;99.90
9209;DHT22;4639;48.862;9.188;2023-03-14T00:26:11;10.50;99.90
9209;DHT22;4639;48.862;9.188;2023-03-14T00:28:38;10.50;99.90
9209;DHT22;4639;48.862;9.188;2023-03-14T00:31:08;10.50;99.90
9209;DHT22;4639;48.862;9.188;2023-03-14T00:33:34;10.50;99.90
9209;DHT22;4639;48.862;9.188;2023-03-14T00:36:06;10.50;99.90
9209;DHT22;4639;48.862;9.188;2023-03-14T00:38:34;10.50;99.90
9209;DHT22;4639;48.862;9.188;2023-03-14T00:41:07;10.50;99.90
9209;DHT22;4639;48.862;9.188;2023-03-14T00:43:34;10.60;99.90
9209;DHT22;4639;48.862;9.188;2023-03-14T00:46:00;10.60;99.90
9209;DHT22;4639;48.862;9.188;2023-03-14T00:48:26;10.60;99.90
9209;DHT22;4639;48.862;9.188;2023-03-14T00:50:52;10.60;99.90
9209;DHT22;4639;48.862;9.188;2023-03-14T00:53:18;10.50;99.90
9209;DHT22;4639;48.862;9.188;2023-03-14T00:55:44;10.60;99.90
9209;DHT22;4639;48.862;9.188;2023-03-14T00:58:11;10.60;99.90
9209;DHT22;4639;48.862;9.188;2023-03-14T01:00:37;10.60;99.90
9209;DHT22;4639;48.862;9.188;2023-03-14T01:03:03;10.70;99.90
9209;DHT22;4639;48.862;9.188;2023-03-14T01:05:29;10.70;99.90
9209;DHT22;4639;48.862;9.188;2023-03-14T01:07:55;10.60;99.90
9209;DHT22;4639;48.862;9.188;2023-03-14T01:10:20;10.60;99.90
9209;DHT22;4639;48.862;9.188;2023-03-14T01:12:46;10.60;99.90
9209;DHT22;4639;48.862;9.188;2023-03-14T01:15:11;10.70;99.90
9209;DHT22;4639;48.862;9.188;2023-03-14T01:17:37;10.80;99.90
9209;DHT22;4639;48.862;9.188;2023-03-14T01:20:07;10.90;99.90
9209;DHT22;4639;48.862;9.188;2023-03-14T01:22:37;10.80;99.90
9209;DHT22;4639;48.862;9.188;2023-03-14T01:25:05;11.00;99.90
9209;DHT22;4639;48.862;9.188;2023-03-14T01:27:32;10.70;99.90
9209;DHT22;4639;48.862;9.188;2023-03-14T01:29:58;10.70;99.90
9209;DHT22;4639;48.862;9.188;2023-03-14T01:32:24;10.80;99.90
9209;DHT22;4639;48.862;9.188;2023-03-14T01:34:50;10.70;99.90
9209;DHT22;4639;48.862;9.188;2023-03-14T01:37:16;10.70;99.90
9209;DHT22;4639;48.862;9.188;2023-03-14T01:39:42;10.70;99.90
9209;DHT22;4639;48.862;9.188;2023-03-14T01:42:07;10.70;99.90
9209;DHT22;4639;48.862;9.188;2023-03-14T01:47:17;10.70;99.90
9209;DHT22;4639;48.862;9.188;2023-03-14T01:49:43;10.70;99.90
9209;DHT22;4639;48.862;9.188;2023-03-14T01:52:27;10.70;99.90
9209;DHT22;4639;48.862;9.188;2023-03-14T01:54:58;10.80;99.90
9209;DHT22;4639;48.862;9.188;2023-03-14T01:57:29;10.80;99.90
9209;DHT22;4639;48.862;9.188;2023-03-14T02:03:07;10.70;99.90
9209;DHT22;4639;48.862;9.188;2023-03-14T02:05:55;10.70;99.90
9209;DHT22;4639;48.862;9.188;2023-03-14T02:08:27;10.70;99.90
9209;DHT22;4639;48.862;9.188;2023-03-14T02:10:52;10.60;99.90
9209;DHT22;4639;48.862;9.188;2023-03-14T02:16:47;10.60;99.90
9209;DHT22;4639;48.862;9.188;2023-03-14T02:19:14;10.60;99.90
9209;DHT22;4639;48.862;9.188;2023-03-14T02:21:52;10.60;99.90
9209;DHT22;4639;48.862;9.188;2023-03-14T02:24:47;10.60;99.90
9209;DHT22;4639;48.862;9.188;2023-03-14T02:27:18;10.70;99.90
9209;DHT22;4639;48.862;9.188;2023-03-14T02:30:13;10.70;99.90
9209;DHT22;4639;48.862;9.188;2023-03-14T02:32:47;10.60;99.90
9209;DHT22;4639;48.862;9.188;2023-03-14T02:41:36;10.60;99.90
9209;DHT22;4639;48.862;9.188;2023-03-14T02:44:21;10.50;99.90
9209;DHT22;4639;48.862;9.188;2023-03-14T02:50:16;10.60;99.90
9209;DHT22;4639;48.862;9.188;2023-03-14T02:52:48;10.60;99.90
9209;DHT22;4639;48.862;9.188;2023-03-14T02:55:21;10.60;99.90
9209;DHT22;4639;48.862;9.188;2023-03-14T02:58:00;10.60;99.90
9209;DHT22;4639;48.862;9.188;2023-03-14T03:00:52;10.60;99.90
9209;DHT22;4639;48.862;9.188;2023-03-14T03:03:39;10.60;99.90
9209;DHT22;4639;48.862;9.188;2023-03-14T03:06:39;10.50;99.90
9209;DHT22;4639;48.862;9.188;2023-03-14T03:09:32;10.50;99.90
9209;DHT22;4639;48.862;9.188;2023-03-14T03:12:24;10.50;99.90
9209;DHT22;4639;48.862;9.188;2023-03-14T03:22:13;10.50;99.90
9209;DHT22;4639;48.862;9.188;2023-03-14T03:25:15;10.50;99.90
9209;DHT22;4639;48.862;9.188;2023-03-14T03:28:21;10.60;99.90
9209;DHT22;4639;48.862;9.188;2023-03-14T03:34:54;10.50;99.90
9209;DHT22;4639;48.862;9.188;2023-03-14T03:50:54;10.40;99.90
9209;DHT22;4639;48.862;9.188;2023-03-14T04:00:43;10.50;99.90
9209;DHT22;4639;48.862;9.188;2023-03-14T04:06:41;10.40;99.90
9209;DHT22;4639;48.862;9.188;2023-03-14T04:09:56;10.40;99.90
9209;DHT22;4639;48.862;9.188;2023-03-14T04:16:03;10.40;99.90
9209;DHT22;4639;48.862;9.188;2023-03-14T04:55:35;10.40;99.90
9209;DHT22;4639;48.862;9.188;2023-03-14T05:29:50;10.30;99.90
9209;DHT22;4639;48.862;9.188;2023-03-14T05:33:25;10.30;99.90
9209;DHT22;4639;48.862;9.188;2023-03-14T05:36:55;10.30;99.90
9209;DHT22;4639;48.862;9.188;2023-03-14T05:54:38;10.10;99.90
9209;DHT22;4639;48.862;9.188;2023-03-14T05:58:08;10.20;99.90
9209;DHT22;4639;48.862;9.188;2023-03-14T06:00:34;10.20;99.90
9209;DHT22;4639;48.862;9.188;2023-03-14T06:02:59;10.30;99.90
9209;DHT22;4639;48.862;9.188;2023-03-14T06:05:25;10.40;99.90
9209;DHT22;4639;48.862;9.188;2023-03-14T06:07:50;10.40;99.90
9209;DHT22;4639;48.862;9.188;2023-03-14T06:10:16;10.50;99.90
9209;DHT22;4639;48.862;9.188;2023-03-14T06:12:41;10.50;99.90
9209;DHT22;4639;48.862;9.188;2023-03-14T06:15:07;10.50;99.90
9209;DHT22;4639;48.862;9.188;2023-03-14T06:17:33;10.50;99.90
9209;DHT22;4639;48.862;9.188;2023-03-14T06:19:58;10.40;99.90
9209;DHT22;4639;48.862;9.188;2023-03-14T06:22:24;10.30;99.90
9209;DHT22;4639;48.862;9.188;2023-03-14T06:24:50;10.40;99.90
9209;DHT22;4639;48.862;9.188;2023-03-14T06:27:15;10.40;99.90
9209;DHT22;4639;48.862;9.188;2023-03-14T06:29:42;10.50;99.90
9209;DHT22;4639;48.862;9.188;2023-03-14T06:32:08;10.40;99.90
9209;DHT22;4639;48.862;9.188;2023-03-14T06:34:34;10.40;99.90
9209;DHT22;4639;48.862;9.188;2023-03-14T06:36:59;10.40;99.90
9209;DHT22;4639;48.862;9.188;2023-03-14T06:39:25;10.40;99.90
9209;DHT22;4639;48.862;9.188;2023-03-14T06:41:50;10.40;99.90
9209;DHT22;4639;48.862;9.188;2023-03-14T06:44:16;10.40;99.90
9209;DHT22;4639;48.862;9.188;2023-03-14T06:46:41;10.50;99.90
9209;DHT22;4639;48.862;9.188;2023-03-14T06:49:07;10.60;99.90
9209;DHT22;4639;48.862;9.188;2023-03-14T06:51:33;10.60;99.90
9209;DHT22;4639;48.862;9.188;2023-03-14T06:53:59;10.70;99.90
9209;DHT22;4639;48.862;9.188;2023-03-14T06:56:24;10.80;99.90
9209;DHT22;4639;48.862;9.188;2023-03-14T06:58:50;10.90;99.90
9209;DHT22;4639;48.862;9.188;2023-03-14T07:01:34;11.00;99.90
9209;DHT22;4639;48.862;9.188;2023-03-14T07:04:00;11.20;99.90
9209;DHT22;4639;48.862;9.188;2023-03-14T07:06:26;11.40;99.90
9209;DHT22;4639;48.862;9.188;2023-03-14T07:08:52;11.40;99.90
9209;DHT22;4639;48.862;9.188;2023-03-14T07:11:17;11.50;99.90
9209;DHT22;4639;48.862;9.188;2023-03-14T07:13:43;11.50;99.90
9209;DHT22;4639;48.862;9.188;2023-03-14T07:16:09;11.70;99.90
9209;DHT22;4639;48.862;9.188;2023-03-14T07:18:34;11.90;99.90
9209;DHT22;4639;48.862;9.188;2023-03-14T07:21:00;12.10;99.90
9209;DHT22;4639;48.862;9.188;2023-03-14T07:23:25;12.10;99.90
9209;DHT22;4639;48.862;9.188;2023-03-14T07:25:51;12.20;99.90
9209;DHT22;4639;48.862;9.188;2023-03-14T07:28:18;12.50;99.90
9209;DHT22;4639;48.862;9.188;2023-03-14T07:30:46;12.60;99.90
9209;DHT22;4639;48.862;9.188;2023-03-14T07:33:12;12.50;99.90
9209;DHT22;4639;48.862;9.188;2023-03-14T07:35:38;12.40;99.90
9209;DHT22;4639;48.862;9.188;2023-03-14T07:38:03;12.30;99.90
9209;DHT22;4639;48.862;9.188;2023-03-14T07:40:29;12.50;99.90
9209;DHT22;4639;48.862;9.188;2023-03-14T07:42:55;12.60;99.90
9209;DHT22;4639;48.862;9.188;2023-03-14T07:45:20;12.70;99.90
9209;DHT22;4639;48.862;9.188;2023-03-14T07:47:46;12.80;99.90
9209;DHT22;4639;48.862;9.188;2023-03-14T07:50:11;13.00;99.90
9209;DHT22;4639;48.862;9.188;2023-03-14T07:52:37;13.00;99.90
9209;DHT22;4639;48.862;9.188;2023-03-14T07:55:03;13.10;99.90
9209;DHT22;4639;48.862;9.188;2023-03-14T07:57:29;13.20;99.90
9209;DHT22;4639;48.862;9.188;2023-03-14T07:59:54;13.10;99.90
9209;DHT22;4639;48.862;9.188;2023-03-14T08:02:20;13.20;99.90
9209;DHT22;4639;48.862;9.188;2023-03-14T08:04:47;13.40;99.90
9209;DHT22;4639;48.862;9.188;2023-03-14T08:07:13;13.50;99.90
9209;DHT22;4639;48.862;9.188;2023-03-14T08:09:38;13.50;99.90
9209;DHT22;4639;48.862;9.188;2023-03-14T08:12:04;13.60;99.90
9209;DHT22;4639;48.862;9.188;2023-03-14T08:14:30;13.60;99.90
9209;DHT22;4639;48.862;9.188;2023-03-14T08:16:56;13.60;99.90
9209;DHT22;4639;48.862;9.188;2023-03-14T08:19:22;13.90;99.90
9209;DHT22;4639;48.862;9.188;2023-03-14T08:21:48;14.10;99.90
9209;DHT22;4639;48.862;9.188;2023-03-14T08:24:13;14.20;99.90
9209;DHT22;4639;48.862;9.188;2023-03-14T08:26:39;14.20;99.90
9209;DHT22;4639;48.862;9.188;2023-03-14T08:29:04;14.30;99.90
9209;DHT22;4639;48.862;9.188;2023-03-14T08:31:30;14.50;99.90
9209;DHT22;4639;48.862;9.188;2023-03-14T08:33:59;14.40;99.90
9209;DHT22;4639;48.862;9.188;2023-03-14T08:36:25;14.10;99.90
9209;DHT22;4639;48.862;9.188;2023-03-14T08:38:50;13.80;99.90
9209;DHT22;4639;48.862;9.188;2023-03-14T08:41:16;13.60;99.90
9209;DHT22;4639;48.862;9.188;2023-03-14T08:43:41;13.30;99.90
9209;DHT22;4639;48.862;9.188;2023-03-14T08:46:07;13.50;99.90
9209;DHT22;4639;48.862;9.188;2023-03-14T08:48:33;13.80;99.90
9209;DHT22;4639;48.862;9.188;2023-03-14T08:51:08;13.80;99.90
9209;DHT22;4639;48.862;9.188;2023-03-14T08:53:36;13.70;99.90
9209;DHT22;4639;48.862;9.188;2023-03-14T08:56:01;13.40;99.90
9209;DHT22;4639;48.862;9.188;2023-03-14T08:58:27;13.50;99.90
9209;DHT22;4639;48.862;9.188;2023-03-14T09:00:52;13.80;99.90
9209;DHT22;4639;48.862;9.188;2023-03-14T09:03:18;14.20;99.90
9209;DHT22;4639;48.862;9.188;2023-03-14T09:05:44;14.50;99.90
9209;DHT22;4639;48.862;9.188;2023-03-14T09:08:09;14.20;99.90
9209;DHT22;4639;48.862;9.188;2023-03-14T09:10:35;14.00;99.90
9209;DHT22;4639;48.862;9.188;2023-03-14T09:13:00;13.60;99.90
9209;DHT22;4639;48.862;9.188;2023-03-14T09:15:26;13.50;99.90
9209;DHT22;4639;48.862;9.188;2023-03-14T09:17:51;13.50;99.90
9209;DHT22;4639;48.862;9.188;2023-03-14T09:20:17;13.60;99.90
9209;DHT22;4639;48.862;9.188;2023-03-14T09:22:43;13.50;99.90
9209;DHT22;4639;48.862;9.188;2023-03-14T09:25:09;13.30;99.90
9209;DHT22;4639;48.862;9.188;2023-03-14T09:27:35;13.10;99.90
9209;DHT22;4639;48.862;9.188;2023-03-14T09:30:01;13.20;99.90
9209;DHT22;4639;48.862;9.188;2023-03-14T09:32:26;12.80;99.90
9209;DHT22;4639;48.862;9.188;2023-03-14T09:34:52;12.80;99.90
9209;DHT22;4639;48.862;9.188;2023-03-14T09:37:17;13.00;99.90
9209;DHT22;4639;48.862;9.188;2023-03-14T09:39:45;13.30;99.90
9209;DHT22;4639;48.862;9.188;2023-03-14T09:42:16;13.30;99.90
9209;DHT22;4639;48.862;9.188;2023-03-14T09:44:55;13.30;99.90
9209;DHT22;4639;48.862;9.188;2023-03-14T09:47:23;13.30;99.90
9209;DHT22;4639;48.862;9.188;2023-03-14T09:49:49;13.00;99.90
9209;DHT22;4639;48.862;9.188;2023-03-14T09:52:17;12.90;99.90
9209;DHT22;4639;48.862;9.188;2023-03-14T09:54:49;12.70;99.90
9209;DHT22;4639;48.862;9.188;2023-03-14T09:57:18;12.60;99.90
9209;DHT22;4639;48.862;9.188;2023-03-14T09:59:45;12.60;99.90
9209;DHT22;4639;48.862;9.188;2023-03-14T10:02:18;12.70;99.90
9209;DHT22;4639;48.862;9.188;2023-03-14T10:04:45;12.60;99.90
9209;DHT22;4639;48.862;9.188;2023-03-14T10:07:15;12.80;99.90
9209;DHT22;4639;48.862;9.188;2023-03-14T10:09:43;13.30;99.90
9209;DHT22;4639;48.862;9.188;2023-03-14T10:12:10;13.40;99.90
9209;DHT22;4639;48.862;9.188;2023-03-14T10:14:37;13.80;99.90
9209;DHT22;4639;48.862;9.188;2023-03-14T10:17:13;14.00;99.90
9209;DHT22;4639;48.862;9.188;2023-03-14T10:19:58;14.40;99.90
9209;DHT22;4639;48.862;9.188;2023-03-14T10:22:27;14.60;99.90
9209;DHT22;4639;48.862;9.188;2023-03-14T10:24:57;14.70;99.90
9209;DHT22;4639;48.862;9.188;2023-03-14T10:27:33;14.70;99.90
9209;DHT22;4639;48.862;9.188;2023-03-14T10:30:01;14.90;99.90
9209;DHT22;4639;48.862;9.188;2023-03-14T10:38:01;14.60;99.90
9209;DHT22;4639;48.862;9.188;2023-03-14T10:40:31;14.30;99.90
9209;DHT22;4639;48.862;9.188;2023-03-14T10:42:59;13.90;99.90
9209;DHT22;4639;48.862;9.188;2023-03-14T10:45:39;13.70;99.90
9209;DHT22;4639;48.862;9.188;2023-03-14T10:48:35;13.70;99.90
9209;DHT22;4639;48.862;9.188;2023-03-14T10:51:04;13.60;99.90
9209;DHT22;4639;48.862;9.188;2023-03-14T10:53:39;13.60;99.90
9209;DHT22;4639;48.862;9.188;2023-03-14T10:56:05;13.70;99.90
9209;DHT22;4639;48.862;9.188;2023-03-14T10:58:38;13.40;99.90
9209;DHT22;4639;48.862;9.188;2023-03-14T11:01:36;13.10;99.90
9209;DHT22;4639;48.862;9.188;2023-03-14T11:04:25;13.00;99.90
9209;DHT22;4639;48.862;9.188;2023-03-14T11:07:24;13.00;99.90
9209;DHT22;4639;48.862;9.188;2023-03-14T11:09:59;12.90;99.90
9209;DHT22;4639;48.862;9.188;2023-03-14T11:12:52;12.70;99.90
9209;DHT22;4639;48.862;9.188;2023-03-14T11:18:39;12.40;99.90
9209;DHT22;4639;48.862;9.188;2023-03-14T11:27:21;11.90;99.90
9209;DHT22;4639;48.862;9.188;2023-03-14T11:32:31;11.80;99.90
9209;DHT22;4639;48.862;9.188;2023-03-14T11:35:03;11.70;99.90
9209;DHT22;4639;48.862;9.188;2023-03-14T11:37:33;11.50;99.90
9209;DHT22;4639;48.862;9.188;2023-03-14T11:40:20;11.40;99.90
9209;DHT22;4639;48.862;9.188;2023-03-14T11:43:33;11.40;99.90
9209;DHT22;4639;48.862;9.188;2023-03-14T11:45:41;11.40;99.90
9209;DHT22;4639;48.862;9.188;2023-03-14T11:48:28;11.50;99.90
9209;DHT22;4639;48.862;9.188;2023-03-14T11:50:57;11.60;99.90
9209;DHT22;4639;48.862;9.188;2023-03-14T11:53:50;11.60;99.90
9209;DHT22;4639;48.862;9.188;2023-03-14T11:56:29;11.70;99.90
9209;DHT22;4639;48.862;9.188;2023-03-14T11:59:09;11.60;99.90
9209;DHT22;4639;48.862;9.188;2023-03-14T12:02:03;11.50;99.90
9209;DHT22;4639;48.862;9.188;2023-03-14T12:07:38;11.10;99.90
9209;DHT22;4639;48.862;9.188;2023-03-14T12:10:05;10.90;99.90
9209;DHT22;4639;48.862;9.188;2023-03-14T12:12:31;10.90;99.90
9209;DHT22;4639;48.862;9.188;2023-03-14T12:15:00;11.00;99.90
9209;DHT22;4639;48.862;9.188;2023-03-14T12:17:40;11.00;99.90
9209;DHT22;4639;48.862;9.188;2023-03-14T12:22:55;11.20;99.90
9209;DHT22;4639;48.862;9.188;2023-03-14T12:25:24;11.10;99.90
9209;DHT22;4639;48.862;9.188;2023-03-14T12:35:48;10.70;99.90
9209;DHT22;4639;48.862;9.188;2023-03-14T12:43:34;10.10;99.90
9209;DHT22;4639;48.862;9.188;2023-03-14T12:51:42;9.80;99.90
9209;DHT22;4639;48.862;9.188;2023-03-14T12:54:40;9.90;99.90
9209;DHT22;4639;48.862;9.188;2023-03-14T12:57:28;10.10;99.90
9209;DHT22;4639;48.862;9.188;2023-03-14T13:00:23;10.50;99.90
9209;DHT22;4639;48.862;9.188;2023-03-14T13:02:49;10.90;99.90
9209;DHT22;4639;48.862;9.188;2023-03-14T13:05:21;10.90;99.90
9209;DHT22;4639;48.862;9.188;2023-03-14T13:10:24;10.90;99.90
9209;DHT22;4639;48.862;9.188;2023-03-14T13:13:17;10.90;99.90
9209;DHT22;4639;48.862;9.188;2023-03-14T13:15:45;10.80;99.90
9209;DHT22;4639;48.862;9.188;2023-03-14T13:18:32;10.80;99.90
9209;DHT22;4639;48.862;9.188;2023-03-14T13:23:29;10.70;99.90
9209;DHT22;4639;48.862;9.188;2023-03-14T13:25:56;10.60;99.90
9209;DHT22;4639;48.862;9.188;2023-03-14T13:28:22;10.60;99.90
9209;DHT22;4639;48.862;9.188;2023-03-14T13:30:50;10.30;99.90
9209;DHT22;4639;48.862;9.188;2023-03-14T13:33:22;10.20;99.90
9209;DHT22;4639;48.862;9.188;2023-03-14T13:35:59;10.10;99.90
9209;DHT22;4639;48.862;9.188;2023-03-14T13:38:27;10.10;99.90
9209;DHT22;4639;48.862;9.188;2023-03-14T13:40:57;9.90;99.90
9209;DHT22;4639;48.862;9.188;2023-03-14T13:43:31;10.00;99.90
9209;DHT22;4639;48.862;9.188;2023-03-14T13:48:30;10.10;99.90
9209;DHT22;4639;48.862;9.188;2023-03-14T13:51:09;10.10;99.90
9209;DHT22;4639;48.862;9.188;2023-03-14T13:53:44;10.10;99.90
9209;DHT22;4639;48.862;9.188;2023-03-14T13:56:11;10.20;99.90
9209;DHT22;4639;48.862;9.188;2023-03-14T13:58:38;10.20;99.90
9209;DHT22;4639;48.862;9.188;2023-03-14T14:03:40;10.00;99.90
9209;DHT22;4639;48.862;9.188;2023-03-14T14:06:23;10.00;99.90
9209;DHT22;4639;48.862;9.188;2023-03-14T14:08:49;9.90;99.90
9209;DHT22;4639;48.862;9.188;2023-03-14T14:11:37;9.70;99.90
9209;DHT22;4639;48.862;9.188;2023-03-14T14:14:06;9.70;99.90
9209;DHT22;4639;48.862;9.188;2023-03-14T14:16:34;9.80;99.90
9209;DHT22;4639;48.862;9.188;2023-03-14T14:19:01;9.70;99.90
9209;DHT22;4639;48.862;9.188;2023-03-14T14:21:27;9.80;99.90
9209;DHT22;4639;48.862;9.188;2023-03-14T14:23:53;9.80;99.90
9209;DHT22;4639;48.862;9.188;2023-03-14T14:26:20;9.80;99.90
9209;DHT22;4639;48.862;9.188;2023-03-14T14:28:46;9.70;99.90
9209;DHT22;4639;48.862;9.188;2023-03-14T14:38:42;9.40;99.90
9209;DHT22;4639;48.862;9.188;2023-03-14T14:41:13;9.40;99.90
9209;DHT22;4639;48.862;9.188;2023-03-14T14:43:39;9.40;99.90
9209;DHT22;4639;48.862;9.188;2023-03-14T14:46:07;9.40;99.90
9209;DHT22;4639;48.862;9.188;2023-03-14T14:48:37;9.40;99.90
9209;DHT22;4639;48.862;9.188;2023-03-14T14:51:05;9.50;99.90
9209;DHT22;4639;48.862;9.188;2023-03-14T14:53:37;9.60;99.90
9209;DHT22;4639;48.862;9.188;2023-03-14T14:58:41;9.60;99.90
9209;DHT22;4639;48.862;9.188;2023-03-14T15:01:22;9.50;99.90
9209;DHT22;4639;48.862;9.188;2023-03-14T15:03:51;9.60;99.90
9209;DHT22;4639;48.862;9.188;2023-03-14T15:06:17;9.50;99.90
9209;DHT22;4639;48.862;9.188;2023-03-14T15:08:44;9.60;99.90
9209;DHT22;4639;48.862;9.188;2023-03-14T15:11:18;9.60;99.90
9209;DHT22;4639;48.862;9.188;2023-03-14T15:13:44;9.60;99.90
9209;DHT22;4639;48.862;9.188;2023-03-14T15:16:15;9.80;99.90
9209;DHT22;4639;48.862;9.188;2023-03-14T15:18:42;10.00;99.90
9209;DHT22;4639;48.862;9.188;2023-03-14T15:21:11;10.10;99.90
9209;DHT22;4639;48.862;9.188;2023-03-14T15:23:37;10.50;99.90
9209;DHT22;4639;48.862;9.188;2023-03-14T15:26:05;10.60;99.90
9209;DHT22;4639;48.862;9.188;2023-03-14T15:28:35;10.60;99.90
9209;DHT22;4639;48.862;9.188;2023-03-14T15:31:01;10.50;99.90
9209;DHT22;4639;48.862;9.188;2023-03-14T15:33:27;10.50;99.90
9209;DHT22;4639;48.862;9.188;2023-03-14T15:35:54;10.20;99.90
9209;DHT22;4639;48.862;9.188;2023-03-14T15:38:21;10.00;99.90
9209;DHT22;4639;48.862;9.188;2023-03-14T15:40:49;9.90;99.90
9209;DHT22;4639;48.862;9.188;2023-03-14T15:43:15;9.90;99.90
9209;DHT22;4639;48.862;9.188;2023-03-14T15:45:40;9.70;99.90
9209;DHT22;4639;48.862;9.188;2023-03-14T15:48:09;9.80;99.90
9209;DHT22;4639;48.862;9.188;2023-03-14T15:50:37;9.80;99.90
9209;DHT22;4639;48.862;9.188;2023-03-14T15:53:03;9.80;99.90
9209;DHT22;4639;48.862;9.188;2023-03-14T15:55:28;9.80;99.90
9209;DHT22;4639;48.862;9.188;2023-03-14T15:57:54;9.70;99.90
9209;DHT22;4639;48.862;9.188;2023-03-14T16:00:20;9.70;99.90
9209;DHT22;4639;48.862;9.188;2023-03-14T16:02:49;9.70;99.90
9209;DHT22;4639;48.862;9.188;2023-03-14T16:05:15;10.10;99.90
9209;DHT22;4639;48.862;9.188;2023-03-14T16:07:41;10.50;99.90
9209;DHT22;4639;48.862;9.188;2023-03-14T16:10:09;10.60;99.90
9209;DHT22;4639;48.862;9.188;2023-03-14T16:12:35;10.50;99.90
9209;DHT22;4639;48.862;9.188;2023-03-14T16:15:00;10.30;99.90
9209;DHT22;4639;48.862;9.188;2023-03-14T16:17:26;10.20;99.90
9209;DHT22;4639;48.862;9.188;2023-03-14T16:19:52;10.20;99.90
9209;DHT22;4639;48.862;9.188;2023-03-14T16:22:17;10.00;99.90
9209;DHT22;4639;48.862;9.188;2023-03-14T16:24:43;9.70;99.90
9209;DHT22;4639;48.862;9.188;2023-03-14T16:27:09;9.50;99.90
9209;DHT22;4639;48.862;9.188;2023-03-14T16:29:34;9.40;99.90
9209;DHT22;4639;48.862;9.188;2023-03-14T16:32:00;9.40;99.90
9209;DHT22;4639;48.862;9.188;2023-03-14T16:34:25;9.20;99.90
9209;DHT22;4639;48.862;9.188;2023-03-14T16:36:51;9.20;99.90
9209;DHT22;4639;48.862;9.188;2023-03-14T16:39:17;9.20;99.90
9209;DHT22;4639;48.862;9.188;2023-03-14T16:41:44;9.20;99.90
9209;DHT22;4639;48.862;9.188;2023-03-14T16:44:09;9.10;99.90
9209;DHT22;4639;48.862;9.188;2023-03-14T16:46:35;9.20;99.90
9209;DHT22;4639;48.862;9.188;2023-03-14T16:49:02;9.10;99.90
9209;DHT22;4639;48.862;9.188;2023-03-14T16:51:28;9.10;99.90
9209;DHT22;4639;48.862;9.188;2023-03-14T16:53:54;9.10;99.90
9209;DHT22;4639;48.862;9.188;2023-03-14T16:56:20;9.10;99.90
9209;DHT22;4639;48.862;9.188;2023-03-14T16:58:46;9.00;99.90
9209;DHT22;4639;48.862;9.188;2023-03-14T17:01:13;9.00;99.90
9209;DHT22;4639;48.862;9.188;2023-03-14T17:03:46;8.90;99.90
9209;DHT22;4639;48.862;9.188;2023-03-14T17:06:15;8.70;99.90
9209;DHT22;4639;48.862;9.188;2023-03-14T17:08:41;8.20;99.90
9209;DHT22;4639;48.862;9.188;2023-03-14T17:11:07;7.90;99.90
9209;DHT22;4639;48.862;9.188;2023-03-14T17:13:33;7.70;99.90
9209;DHT22;4639;48.862;9.188;2023-03-14T17:16:00;7.70;99.90
9209;DHT22;4639;48.862;9.188;2023-03-14T17:18:28;7.70;99.90
9209;DHT22;4639;48.862;9.188;2023-03-14T17:20:55;7.60;99.90
9209;DHT22;4639;48.862;9.188;2023-03-14T17:23:23;7.40;99.90
9209;DHT22;4639;48.862;9.188;2023-03-14T17:25:49;7.30;99.90
9209;DHT22;4639;48.862;9.188;2023-03-14T17:28:19;7.20;99.90
9209;DHT22;4639;48.862;9.188;2023-03-14T17:30:46;7.20;99.90
9209;DHT22;4639;48.862;9.188;2023-03-14T17:33:12;7.20;99.90
9209;DHT22;4639;48.862;9.188;2023-03-14T17:35:38;7.20;99.90
9209;DHT22;4639;48.862;9.188;2023-03-14T17:38:04;7.20;99.90
9209;DHT22;4639;48.862;9.188;2023-03-14T17:40:30;7.20;99.90
9209;DHT22;4639;48.862;9.188;2023-03-14T17:42:56;7.20;99.90
9209;DHT22;4639;48.862;9.188;2023-03-14T17:45:21;7.20;99.90
9209;DHT22;4639;48.862;9.188;2023-03-14T17:47:47;7.20;99.90
9209;DHT22;4639;48.862;9.188;2023-03-14T17:50:13;7.10;99.90
9209;DHT22;4639;48.862;9.188;2023-03-14T17:52:39;7.00;99.90
9209;DHT22;4639;48.862;9.188;2023-03-14T17:55:06;7.00;99.90
9209;DHT22;4639;48.862;9.188;2023-03-14T17:57:32;6.90;99.90
9209;DHT22;4639;48.862;9.188;2023-03-14T17:59:58;6.90;99.90
9209;DHT22;4639;48.862;9.188;2023-03-14T18:02:24;6.90;99.90
9209;DHT22;4639;48.862;9.188;2023-03-14T18:04:50;6.80;99.90
9209;DHT22;4639;48.862;9.188;2023-03-14T18:07:17;6.90;99.90
9209;DHT22;4639;48.862;9.188;2023-03-14T18:09:42;7.00;99.90
9209;DHT22;4639;48.862;9.188;2023-03-14T18:12:08;6.90;99.90
9209;DHT22;4639;48.862;9.188;2023-03-14T18:14:37;7.00;99.90
9209;DHT22;4639;48.862;9.188;2023-03-14T18:17:03;6.90;99.90
9209;DHT22;4639;48.862;9.188;2023-03-14T18:19:30;6.70;99.90
9209;DHT22;4639;48.862;9.188;2023-03-14T18:21:56;6.50;99.90
9209;DHT22;4639;48.862;9.188;2023-03-14T18:24:22;6.50;99.90
9209;DHT22;4639;48.862;9.188;2023-03-14T18:26:47;6.60;99.90
9209;DHT22;4639;48.862;9.188;2023-03-14T18:29:13;6.60;99.90
9209;DHT22;4639;48.862;9.188;2023-03-14T18:31:43;6.70;99.90
9209;DHT22;4639;48.862;9.188;2023-03-14T18:34:10;6.60;99.90
9209;DHT22;4639;48.862;9.188;2023-03-14T18:36:36;6.60;99.90
9209;DHT22;4639;48.862;9.188;2023-03-14T18:39:03;6.60;99.90
9209;DHT22;4639;48.862;9.188;2023-03-14T18:41:32;6.70;99.90
9209;DHT22;4639;48.862;9.188;2023-03-14T18:43:59;6.70;99.90
9209;DHT22;4639;48.862;9.188;2023-03-14T18:46:25;6.70;99.90
9209;DHT22;4639;48.862;9.188;2023-03-14T18:48:52;6.70;99.90
9209;DHT22;4639;48.862;9.188;2023-03-14T18:51:25;6.70;99.90
9209;DHT22;4639;48.862;9.188;2023-03-14T18:53:51;6.70;99.90
9209;DHT22;4639;48.862;9.188;2023-03-14T18:56:17;6.70;99.90
9209;DHT22;4639;48.862;9.188;2023-03-14T18:58:43;6.70;99.90
9209;DHT22;4639;48.862;9.188;2023-03-14T19:01:09;6.80;99.90
9209;DHT22;4639;48.862;9.188;2023-03-14T19:03:36;6.80;99.90
9209;DHT22;4639;48.862;9.188;2023-03-14T19:06:04;6.70;99.90
9209;DHT22;4639;48.862;9.188;2023-03-14T19:08:31;6.80;99.90
9209;DHT22;4639;48.862;9.188;2023-03-14T19:11:01;6.70;99.90
9209;DHT22;4639;48.862;9.188;2023-03-14T19:13:29;6.70;99.90
9209;DHT22;4639;48.862;9.188;2023-03-14T19:15:56;6.70;99.90
9209;DHT22;4639;48.862;9.188;2023-03-14T19:18:22;6.80;99.90
9209;DHT22;4639;48.862;9.188;2023-03-14T19:20:59;6.80;99.90
9209;DHT22;4639;48.862;9.188;2023-03-14T19:23:26;6.80;99.90
9209;DHT22;4639;48.862;9.188;2023-03-14T19:25:52;6.80;99.90
9209;DHT22;4639;48.862;9.188;2023-03-14T19:28:18;6.80;99.90
9209;DHT22;4639;48.862;9.188;2023-03-14T19:30:44;6.80;99.90
9209;DHT22;4639;48.862;9.188;2023-03-14T19:33:10;6.80;99.90
9209;DHT22;4639;48.862;9.188;2023-03-14T19:35:36;6.80;99.90
9209;DHT22;4639;48.862;9.188;2023-03-14T19:38:02;6.80;99.90
9209;DHT22;4639;48.862;9.188;2023-03-14T19:40:28;6.80;99.90
9209;DHT22;4639;48.862;9.188;2023-03-14T19:42:53;6.80;99.90
9209;DHT22;4639;48.862;9.188;2023-03-14T19:45:19;6.70;99.90
9209;DHT22;4639;48.862;9.188;2023-03-14T19:47:45;6.70;99.90
9209;DHT22;4639;48.862;9.188;2023-03-14T19:50:11;6.70;99.90